Time;durP1;ratioP1;P1;durP2;ratioP2;P2;SDS_P1;SDS_P2;PMS_P1;PMS_P2;Temp;Humidity;BMP_temperature;BMP_pressure;BME280_temperature;BME280_humidity;BME280_pressure;Samples;Min_cycle;Max_cycle;Signal;HPM_P1;HPM_P2
2021/01/13 00:00:25;;;;;;;8.90;3.67;;;1.50;88.90;;;;;;5004870;28;20046;-66
2021/01/13 00:02:52;;;;;;;8.68;3.60;;;1.60;88.60;;;;;;4998327;28;20141;-65
2021/01/13 00:05:18;;;;;;;12.07;3.92;;;1.70;88.00;;;;;;5010113;28;20133;-65
2021/01/13 00:07:44;;;;;;;12.60;3.83;;;1.60;88.40;;;;;;5013279;28;20048;-65
2021/01/13 00:10:11;;;;;;;12.73;4.07;;;1.50;88.60;;;;;;5005414;28;20031;-64
2021/01/13 00:12:38;;;;;;;10.68;3.33;;;1.50;88.50;;;;;;4985854;28;20064;-65
2021/01/13 00:15:09;;;;;;;7.68;3.60;;;1.50;88.40;;;;;;5011340;28;20042;-64
2021/01/13 00:17:35;;;;;;;7.05;3.20;;;1.60;88.30;;;;;;4997083;28;20038;-65
2021/01/13 00:20:02;;;;;;;10.93;3.80;;;1.60;88.10;;;;;;5012545;28;20030;-65
2021/01/13 00:22:28;;;;;;;12.45;3.25;;;1.60;87.70;;;;;;5012784;28;20032;-66
2021/01/13 00:24:54;;;;;;;15.45;4.25;;;1.70;87.30;;;;;;4994334;28;20045;-65
2021/01/13 00:27:21;;;;;;;12.52;4.22;;;1.70;88.40;;;;;;5010373;28;20058;-64
2021/01/13 00:29:51;;;;;;;14.32;4.80;;;1.50;88.10;;;;;;5012706;28;21005;-65
2021/01/13 00:32:17;;;;;;;8.77;3.65;;;1.60;87.80;;;;;;5021730;28;20089;-65
2021/01/13 00:34:42;;;;;;;11.10;4.10;;;1.70;87.70;;;;;;5003628;28;20172;-65
2021/01/13 00:37:08;;;;;;;15.98;3.90;;;1.60;87.60;;;;;;5009103;28;20037;-64
2021/01/13 00:39:35;;;;;;;13.95;4.13;;;1.60;88.20;;;;;;5012467;28;20038;-65
2021/01/13 00:42:02;;;;;;;12.07;3.42;;;1.60;88.10;;;;;;4995329;28;20034;-64
2021/01/13 00:44:27;;;;;;;15.00;3.80;;;1.60;88.10;;;;;;4994646;28;20113;-66
2021/01/13 00:46:53;;;;;;;7.55;3.50;;;1.60;88.00;;;;;;5012260;28;20157;-66
2021/01/13 00:49:19;;;;;;;11.68;4.07;;;1.50;88.50;;;;;;5017190;28;20550;-65
2021/01/13 00:51:45;;;;;;;11.25;3.97;;;1.50;88.70;;;;;;5011526;28;20057;-67
2021/01/13 00:54:12;;;;;;;18.40;4.30;;;1.50;88.80;;;;;;5011325;28;20393;-65
2021/01/13 00:56:42;;;;;;;12.10;4.20;;;1.40;89.10;;;;;;5011616;28;20033;-65
2021/01/13 00:59:10;;;;;;;12.20;4.38;;;1.40;89.10;;;;;;4994789;28;20034;-65
2021/01/13 01:01:38;;;;;;;11.05;4.30;;;1.40;89.40;;;;;;4993583;28;20034;-65
2021/01/13 01:04:05;;;;;;;6.47;4.07;;;1.50;89.20;;;;;;4997344;28;20120;-64
2021/01/13 01:06:31;;;;;;;11.90;4.63;;;1.60;88.80;;;;;;5003431;28;20556;-63
2021/01/13 01:08:56;;;;;;;12.40;4.05;;;1.40;89.00;;;;;;5005717;28;20194;-65
2021/01/13 01:11:25;;;;;;;12.63;4.40;;;1.60;88.20;;;;;;5012960;28;20030;-65
2021/01/13 01:13:51;;;;;;;12.82;4.60;;;1.40;89.40;;;;;;4996464;28;20030;-65
2021/01/13 01:16:17;;;;;;;18.77;5.03;;;1.50;88.80;;;;;;4995070;28;20044;-65
2021/01/13 01:18:43;;;;;;;13.90;4.45;;;1.50;88.20;;;;;;5012415;28;20052;-65
2021/01/13 01:21:09;;;;;;;14.30;4.25;;;1.50;88.60;;;;;;5009597;28;20109;-66
2021/01/13 01:23:36;;;;;;;9.23;3.83;;;1.50;88.40;;;;;;5009436;28;20130;-66
2021/01/13 01:26:03;;;;;;;10.35;4.20;;;1.40;88.40;;;;;;5011341;28;20030;-66
2021/01/13 01:28:29;;;;;;;10.80;4.28;;;1.40;88.30;;;;;;5012353;28;20029;-66
2021/01/13 01:30:55;;;;;;;12.85;4.05;;;1.40;88.10;;;;;;5010655;28;20053;-66
2021/01/13 01:33:21;;;;;;;7.80;3.90;;;1.40;88.10;;;;;;4995141;28;20030;-66
2021/01/13 01:35:47;;;;;;;12.82;3.97;;;1.50;87.80;;;;;;5007268;28;20114;-65
2021/01/13 01:38:12;;;;;;;11.07;4.28;;;1.40;87.90;;;;;;4999058;28;20405;-65
2021/01/13 01:40:38;;;;;;;14.65;4.30;;;1.60;87.40;;;;;;5013295;28;20045;-66
2021/01/13 01:43:04;;;;;;;12.18;4.35;;;1.60;87.60;;;;;;4994059;28;20107;-66
2021/01/13 01:45:34;;;;;;;13.20;4.50;;;1.50;87.90;;;;;;4992931;28;20034;-66
2021/01/13 01:48:02;;;;;;;23.08;7.60;;;1.60;87.90;;;;;;4995126;28;20057;-65
2021/01/13 01:50:33;;;;;;;10.52;4.38;;;1.70;87.60;;;;;;5021049;28;20076;-64
2021/01/13 01:53:14;;;;;;;15.73;4.78;;;1.70;87.50;;;;;;5005611;28;20030;-65
2021/01/13 01:56:05;;;;;;;16.48;5.78;;;1.80;87.50;;;;;;5011190;28;20034;-65
2021/01/13 01:58:32;;;;;;;13.85;4.65;;;1.60;87.70;;;;;;5011238;28;20623;-65
2021/01/13 02:00:59;;;;;;;10.65;4.70;;;1.70;87.40;;;;;;5010415;28;20042;-65
2021/01/13 02:03:48;;;;;;;16.88;5.15;;;1.80;87.30;;;;;;5012860;28;20038;-66
2021/01/13 02:06:15;;;;;;;17.95;5.32;;;1.70;87.70;;;;;;5013114;28;20040;-64
2021/01/13 02:08:46;;;;;;;16.23;5.00;;;1.60;87.90;;;;;;5013019;28;20056;-66
2021/01/13 02:11:19;;;;;;;16.52;4.88;;;1.60;87.80;;;;;;5011509;28;20045;-65
2021/01/13 02:13:47;;;;;;;13.40;6.35;;;1.70;87.70;;;;;;4995412;28;20124;-66
2021/01/13 02:16:17;;;;;;;15.27;4.90;;;1.80;87.30;;;;;;5011239;28;20034;-65
2021/01/13 02:18:44;;;;;;;14.70;4.97;;;1.80;87.20;;;;;;5002479;28;20432;-65
2021/01/13 02:21:19;;;;;;;15.25;4.97;;;1.80;87.10;;;;;;4993759;28;20113;-65
2021/01/13 02:23:56;;;;;;;13.77;4.72;;;1.80;86.70;;;;;;4993914;28;20497;-64
2021/01/13 02:26:24;;;;;;;9.07;4.72;;;1.70;87.30;;;;;;4978587;28;20087;-65
2021/01/13 02:29:09;;;;;;;14.05;5.13;;;1.70;87.20;;;;;;5011439;28;20497;-66
2021/01/13 02:31:56;;;;;;;13.60;5.35;;;1.80;86.90;;;;;;5010634;28;20046;-65
2021/01/13 02:34:35;;;;;;;21.17;5.72;;;1.80;86.90;;;;;;4999902;28;20564;-65
2021/01/13 02:37:33;;;;;;;12.88;5.47;;;1.70;87.20;;;;;;5012111;28;20034;-66
2021/01/13 02:40:07;;;;;;;10.95;5.10;;;1.70;87.40;;;;;;4996030;28;20489;-64
2021/01/13 02:42:37;;;;;;;16.80;6.00;;;1.70;87.40;;;;;;5010100;28;20072;-64
2021/01/13 02:45:21;;;;;;;12.75;5.22;;;1.70;87.70;;;;;;5010965;28;20049;-65
2021/01/13 02:47:59;;;;;;;17.80;6.97;;;1.60;88.10;;;;;;4995553;28;20033;-64
2021/01/13 02:50:27;;;;;;;14.52;5.80;;;1.50;88.50;;;;;;5022346;28;20441;-64
2021/01/13 02:53:30;;;;;;;19.77;5.97;;;1.60;88.50;;;;;;5003537;28;20559;-65
2021/01/13 02:55:56;;;;;;;15.23;5.10;;;1.60;88.30;;;;;;5010557;28;20049;-65
2021/01/13 02:58:34;;;;;;;19.00;5.63;;;1.60;88.40;;;;;;5003265;28;20042;-64
2021/01/13 03:01:02;;;;;;;15.10;5.68;;;1.50;89.00;;;;;;5003119;28;20116;-65
2021/01/13 03:03:32;;;;;;;13.35;5.97;;;1.50;88.40;;;;;;5010875;28;20117;-64
2021/01/13 03:06:06;;;;;;;12.38;5.20;;;1.60;87.90;;;;;;5006147;28;20034;-64
2021/01/13 03:09:10;;;;;;;13.02;5.50;;;1.50;88.40;;;;;;4998763;28;20034;-65
2021/01/13 03:11:37;;;;;;;13.60;5.32;;;1.60;88.20;;;;;;5008294;28;20392;-66
2021/01/13 03:14:12;;;;;;;12.32;5.93;;;1.70;88.10;;;;;;4979035;28;20042;-66
2021/01/13 03:16:55;;;;;;;15.50;5.35;;;1.60;88.80;;;;;;5014938;28;20515;-64
2021/01/13 03:19:28;;;;;;;9.90;5.40;;;1.60;88.60;;;;;;5015288;28;20069;-64
2021/01/13 03:22:02;;;;;;;18.42;6.60;;;1.70;88.30;;;;;;5014990;28;20052;-65
2021/01/13 03:24:46;;;;;;;14.60;5.53;;;1.60;88.90;;;;;;5014329;28;20065;-66
2021/01/13 03:27:14;;;;;;;9.13;4.80;;;1.60;88.80;;;;;;5013159;28;20115;-65
2021/01/13 03:29:45;;;;;;;11.88;5.65;;;1.70;88.60;;;;;;4996964;28;20045;-65
2021/01/13 03:32:18;;;;;;;20.30;6.72;;;1.80;88.30;;;;;;4996738;28;20034;-66
2021/01/13 03:35:02;;;;;;;17.08;6.30;;;1.80;88.40;;;;;;5012735;28;20036;-66
2021/01/13 03:37:52;;;;;;;15.10;6.22;;;1.80;87.90;;;;;;5012945;28;20042;-65
2021/01/13 03:40:20;;;;;;;16.45;5.30;;;1.80;88.10;;;;;;5013557;28;20033;-66
2021/01/13 03:42:51;;;;;;;15.02;5.68;;;1.70;88.40;;;;;;4996480;28;20045;-64
2021/01/13 03:45:36;;;;;;;16.45;6.07;;;1.80;88.00;;;;;;4995939;28;20476;-64
2021/01/13 03:48:03;;;;;;;12.20;6.05;;;1.70;88.50;;;;;;5016434;28;20066;-64
2021/01/13 03:50:41;;;;;;;18.70;5.70;;;1.70;88.70;;;;;;5004875;28;20671;-65
2021/01/13 03:53:09;;;;;;;20.33;7.85;;;1.70;88.80;;;;;;5012623;28;20026;-65
2021/01/13 03:55:40;;;;;;;15.95;6.35;;;1.60;88.80;;;;;;5013339;28;20048;-64
2021/01/13 03:58:08;;;;;;;14.00;5.78;;;1.70;88.60;;;;;;5008215;28;20046;-64
2021/01/13 04:01:00;;;;;;;16.08;6.63;;;1.70;88.50;;;;;;5009855;28;20117;-64
2021/01/13 04:03:30;;;;;;;16.35;6.00;;;1.70;88.70;;;;;;5002448;28;20084;-64
2021/01/13 04:06:03;;;;;;;13.90;6.00;;;1.70;88.70;;;;;;5013011;28;20034;-64
2021/01/13 04:08:41;;;;;;;14.65;5.93;;;1.70;88.80;;;;;;5004951;28;20046;-64
2021/01/13 04:11:09;;;;;;;14.68;6.28;;;1.70;89.10;;;;;;4996040;28;20401;-64
2021/01/13 04:13:48;;;;;;;21.40;7.65;;;1.60;89.60;;;;;;5013136;28;20048;-64
2021/01/13 04:16:17;;;;;;;12.25;6.35;;;1.60;89.70;;;;;;5013170;28;20131;-64
2021/01/13 04:18:45;;;;;;;19.45;6.30;;;1.60;89.70;;;;;;5012466;28;20089;-64
2021/01/13 04:21:13;;;;;;;14.07;5.93;;;1.70;89.30;;;;;;5013129;28;20425;-64
2021/01/13 04:23:39;;;;;;;13.45;5.88;;;1.60;89.40;;;;;;4995569;28;20054;-64
2021/01/13 04:26:08;;;;;;;13.23;5.65;;;1.60;90.00;;;;;;5012831;28;20038;-66
2021/01/13 04:28:34;;;;;;;11.68;6.32;;;1.70;89.50;;;;;;5003288;28;20038;-64
2021/01/13 04:31:00;;;;;;;13.52;5.43;;;1.60;89.40;;;;;;5013329;28;20512;-64
2021/01/13 04:33:25;;;;;;;15.25;5.43;;;1.60;89.40;;;;;;4996792;28;20046;-65
2021/01/13 04:35:52;;;;;;;12.32;5.50;;;1.60;89.40;;;;;;5013225;28;20121;-63
2021/01/13 04:38:27;;;;;;;12.73;5.53;;;1.70;89.00;;;;;;4996215;28;20040;-64
2021/01/13 04:41:11;;;;;;;16.17;5.10;;;1.70;88.90;;;;;;5015098;28;20037;-65
2021/01/13 04:43:50;;;;;;;11.40;5.38;;;1.70;88.90;;;;;;5015208;28;20026;-65
2021/01/13 04:46:36;;;;;;;13.18;5.22;;;1.80;88.40;;;;;;5008182;28;20042;-65
2021/01/13 04:49:01;;;;;;;9.10;4.80;;;1.80;88.50;;;;;;5019869;28;20519;-65
2021/01/13 04:51:31;;;;;;;12.10;6.18;;;1.80;88.40;;;;;;5016566;28;20038;-64
2021/01/13 04:53:57;;;;;;;12.57;5.18;;;1.90;88.20;;;;;;5013404;28;20083;-65
2021/01/13 04:56:25;;;;;;;10.93;5.30;;;1.90;88.00;;;;;;5011371;28;20038;-64
2021/01/13 04:58:56;;;;;;;14.88;5.70;;;1.90;87.80;;;;;;5016012;28;20041;-64
2021/01/13 05:01:57;;;;;;;18.95;5.90;;;1.80;88.10;;;;;;5008996;28;20396;-65
2021/01/13 05:04:44;;;;;;;9.57;5.32;;;1.80;88.10;;;;;;5001991;28;20038;-64
2021/01/13 05:07:13;;;;;;;14.43;4.82;;;1.80;88.10;;;;;;5005422;28;20032;-64
2021/01/13 05:10:06;;;;;;;13.40;4.75;;;1.80;87.70;;;;;;4994459;28;20525;-64
2021/01/13 05:12:55;;;;;;;10.30;5.57;;;1.70;87.90;;;;;;5001881;28;20038;-65
2021/01/13 05:15:32;;;;;;;12.38;5.22;;;1.60;87.90;;;;;;5008701;28;20037;-64
2021/01/13 05:18:01;;;;;;;16.35;5.97;;;1.70;87.90;;;;;;4995211;28;20038;-64
2021/01/13 05:20:28;;;;;;;11.27;5.78;;;1.60;88.20;;;;;;5012538;28;20026;-64
2021/01/13 05:22:56;;;;;;;14.07;5.57;;;1.60;88.00;;;;;;4999904;28;20413;-64
2021/01/13 05:25:34;;;;;;;18.10;5.82;;;1.60;88.20;;;;;;4991090;28;20038;-64
2021/01/13 05:28:09;;;;;;;16.52;5.28;;;1.60;88.20;;;;;;4997812;28;20429;-64
2021/01/13 05:30:40;;;;;;;14.05;5.25;;;1.60;88.40;;;;;;4995533;28;20052;-64
2021/01/13 05:33:09;;;;;;;10.60;5.47;;;1.60;88.40;;;;;;5012507;28;20034;-64
2021/01/13 05:35:40;;;;;;;12.98;5.30;;;1.70;88.40;;;;;;5010672;28;20176;-63
2021/01/13 05:38:10;;;;;;;14.88;5.45;;;1.60;88.60;;;;;;4981176;28;20037;-63
2021/01/13 05:40:44;;;;;;;15.65;5.35;;;1.70;88.60;;;;;;5012633;28;20041;-64
2021/01/13 05:43:10;;;;;;;11.02;5.57;;;1.70;88.30;;;;;;5003968;28;20030;-63
2021/01/13 05:45:40;;;;;;;12.15;5.63;;;1.80;88.00;;;;;;5012496;28;20493;-63
2021/01/13 05:48:13;;;;;;;13.77;5.38;;;1.80;88.10;;;;;;5016825;28;20499;-65
2021/01/13 05:50:39;;;;;;;10.40;5.15;;;1.80;88.10;;;;;;5022365;28;20393;-65
2021/01/13 05:53:06;;;;;;;16.05;5.75;;;1.90;87.80;;;;;;5012289;28;20036;-65
2021/01/13 05:55:32;;;;;;;10.98;5.57;;;1.90;88.20;;;;;;5011111;28;20045;-63
2021/01/13 05:57:59;;;;;;;16.17;7.28;;;1.90;88.20;;;;;;4980029;28;20664;-64
2021/01/13 06:00:27;;;;;;;11.57;5.05;;;1.80;88.50;;;;;;5012307;28;20493;-64
2021/01/13 06:02:57;;;;;;;14.00;4.97;;;1.80;89.00;;;;;;4999800;28;20041;-65
2021/01/13 06:05:33;;;;;;;14.75;5.70;;;1.80;88.80;;;;;;5007917;28;20611;-64
2021/01/13 06:08:01;;;;;;;13.88;5.45;;;1.90;89.10;;;;;;4995756;28;20120;-64
2021/01/13 06:10:34;;;;;;;12.40;5.28;;;2.00;88.70;;;;;;5011543;28;20440;-64
2021/01/13 06:13:03;;;;;;;9.77;5.47;;;1.90;89.10;;;;;;5011676;28;20034;-64
2021/01/13 06:15:29;;;;;;;13.43;6.53;;;1.80;89.60;;;;;;5010247;28;20037;-64
2021/01/13 06:17:58;;;;;;;13.80;5.82;;;1.80;89.50;;;;;;4979084;28;20033;-64
2021/01/13 06:20:26;;;;;;;15.10;6.38;;;1.70;89.60;;;;;;5009914;28;20060;-63
2021/01/13 06:22:52;;;;;;;18.58;7.68;;;1.80;89.30;;;;;;4999539;28;20067;-64
2021/01/13 06:25:27;;;;;;;14.10;6.22;;;1.90;89.30;;;;;;5005349;28;20448;-65
2021/01/13 06:28:06;;;;;;;17.15;5.97;;;1.90;88.70;;;;;;4996176;28;20030;-64
2021/01/13 06:30:42;;;;;;;15.70;6.40;;;1.90;88.90;;;;;;5011363;28;20018;-65
2021/01/13 06:33:24;;;;;;;11.52;6.13;;;1.80;88.90;;;;;;5011984;28;20038;-64
2021/01/13 06:36:13;;;;;;;20.02;6.82;;;1.90;88.70;;;;;;4996737;28;20034;-65
2021/01/13 06:38:56;;;;;;;14.63;6.35;;;1.90;88.70;;;;;;5011756;28;20277;-64
2021/01/13 06:41:23;;;;;;;12.00;5.63;;;1.90;88.30;;;;;;5011320;28;20104;-64
2021/01/13 06:44:04;;;;;;;15.30;6.85;;;1.90;88.00;;;;;;5011179;28;20058;-65
2021/01/13 06:46:30;;;;;;;15.65;5.78;;;1.90;88.10;;;;;;5009619;28;20501;-64
2021/01/13 06:49:11;;;;;;;14.73;6.20;;;1.90;88.50;;;;;;5021731;28;20131;-64
2021/01/13 06:51:40;;;;;;;15.60;6.50;;;2.00;87.50;;;;;;5014664;28;20436;-64
2021/01/13 06:54:07;;;;;;;13.65;6.25;;;2.10;87.20;;;;;;5001326;28;20026;-64
2021/01/13 06:56:43;;;;;;;15.38;5.50;;;2.20;86.50;;;;;;5014378;28;20029;-64
2021/01/13 06:59:09;;;;;;;17.15;6.10;;;2.20;86.00;;;;;;5015118;28;20120;-64
2021/01/13 07:01:56;;;;;;;13.20;5.72;;;2.30;85.50;;;;;;4988331;28;20524;-65
2021/01/13 07:04:24;;;;;;;17.75;5.85;;;2.30;85.70;;;;;;5014914;28;20049;-64
2021/01/13 07:07:00;;;;;;;18.77;5.47;;;2.30;85.40;;;;;;5014395;28;20092;-64
2021/01/13 07:09:33;;;;;;;15.38;5.90;;;2.40;85.50;;;;;;5015335;28;20038;-64
2021/01/13 07:12:07;;;;;;;14.70;5.90;;;2.50;85.40;;;;;;5009963;28;20030;-64
2021/01/13 07:14:36;;;;;;;15.43;5.95;;;2.50;85.80;;;;;;5004387;28;20089;-64
2021/01/13 07:17:08;;;;;;;14.13;5.53;;;2.40;86.10;;;;;;5014769;28;20057;-64
2021/01/13 07:19:35;;;;;;;14.43;5.57;;;2.50;86.10;;;;;;4998903;28;20034;-64
2021/01/13 07:22:02;;;;;;;12.73;5.65;;;2.40;86.40;;;;;;5014469;28;20448;-65
2021/01/13 07:24:29;;;;;;;17.38;5.32;;;2.40;86.80;;;;;;5014504;28;20034;-64
2021/01/13 07:26:57;;;;;;;16.83;5.95;;;2.50;86.90;;;;;;5014407;28;20037;-64
2021/01/13 07:29:25;;;;;;;11.48;5.75;;;2.40;87.40;;;;;;4998938;28;20113;-64
2021/01/13 07:31:54;;;;;;;12.32;5.35;;;2.40;87.80;;;;;;5014028;28;20523;-64
2021/01/13 07:34:36;;;;;;;15.70;5.10;;;2.30;88.00;;;;;;4989372;28;20874;-65
2021/01/13 07:37:23;;;;;;;17.95;5.38;;;2.30;88.40;;;;;;5007086;28;20045;-65
2021/01/13 07:40:16;;;;;;;15.90;4.97;;;2.30;88.70;;;;;;5004634;28;20670;-65
2021/01/13 07:42:44;;;;;;;11.60;4.53;;;2.30;89.20;;;;;;5005706;28;20033;-65
2021/01/13 07:45:21;;;;;;;13.82;4.82;;;2.20;89.70;;;;;;5014368;28;20370;-65
2021/01/13 07:48:11;;;;;;;11.38;4.88;;;2.10;90.10;;;;;;5013061;28;20050;-65
2021/01/13 07:50:46;;;;;;;8.57;4.53;;;2.10;90.30;;;;;;5034394;28;20025;-66
2021/01/13 07:53:28;;;;;;;;;;;2.00;90.30;;;;;;5017119;28;20066;-64
2021/01/13 07:55:58;;;;;;;13.65;4.90;;;2.10;90.30;;;;;;4997063;28;19906;-64
2021/01/13 07:58:29;;;;;;;12.50;4.68;;;2.10;90.10;;;;;;5005988;28;20073;-65
2021/01/13 08:01:04;;;;;;;13.30;5.03;;;2.10;90.10;;;;;;5006332;28;20042;-64
2021/01/13 08:04:17;;;;;;;13.00;4.57;;;2.00;90.30;;;;;;5013028;28;20533;-64
2021/01/13 08:06:48;;;;;;;11.05;4.88;;;2.00;90.20;;;;;;5004975;28;20042;-65
2021/01/13 08:09:15;;;;;;;10.85;4.15;;;2.10;90.10;;;;;;5012136;28;20121;-64
2021/01/13 08:12:02;;;;;;;17.33;4.85;;;2.10;90.00;;;;;;5013538;28;20048;-65
2021/01/13 08:15:22;;;;;;;12.27;4.38;;;2.10;89.90;;;;;;5003042;28;20041;-65
2021/01/13 08:18:23;;;;;;;16.27;4.57;;;2.10;89.80;;;;;;4953521;29;20434;-66
2021/01/13 08:21:33;;;;;;;11.70;4.45;;;2.10;90.00;;;;;;5013895;28;20103;-64
2021/01/13 08:24:39;;;;;;;12.80;4.05;;;2.20;89.10;;;;;;4999355;28;20057;-64
2021/01/13 08:26:58;;;;;;;13.65;4.80;;;2.30;89.30;;;;;;5001678;28;20053;-66
2021/01/13 08:29:32;;;;;;;12.57;3.83;;;2.30;88.30;;;;;;5010903;28;20497;-65
2021/01/13 08:32:09;;;;;;;10.65;3.92;;;2.30;88.20;;;;;;5008801;28;20065;-65
2021/01/13 08:34:44;;;;;;;15.85;4.30;;;2.30;87.80;;;;;;5003123;28;20038;-68
2021/01/13 08:37:10;;;;;;;;;;;2.30;87.60;;;;;;5014338;28;20056;-65
2021/01/13 08:39:38;;;;;;;9.75;3.95;;;2.40;87.10;;;;;;4998130;28;19914;-63
2021/01/13 08:42:18;;;;;;;13.32;4.15;;;2.30;87.30;;;;;;5015148;28;20021;-64
2021/01/13 08:44:43;;;;;;;12.18;4.43;;;2.30;87.30;;;;;;5012947;28;20029;-64
2021/01/13 08:47:09;;;;;;;13.23;3.78;;;2.30;86.80;;;;;;5011968;28;20103;-65
2021/01/13 08:49:36;;;;;;;12.52;4.05;;;2.40;86.70;;;;;;5027423;28;20103;-64
2021/01/13 08:52:15;;;;;;;13.00;3.80;;;2.40;86.50;;;;;;5007814;28;20038;-63
2021/01/13 08:54:56;;;;;;;9.88;3.20;;;2.50;86.30;;;;;;5003674;28;20053;-64
2021/01/13 08:57:23;;;;;;;12.98;4.03;;;2.50;85.90;;;;;;5013349;28;20030;-64
2021/01/13 08:59:49;;;;;;;7.50;3.65;;;2.60;85.60;;;;;;5013146;28;20428;-64
2021/01/13 09:02:19;;;;;;;8.63;3.47;;;2.60;85.60;;;;;;5005027;28;20046;-64
2021/01/13 09:05:01;;;;;;;10.48;3.53;;;2.70;85.70;;;;;;5001856;28;20034;-64
2021/01/13 09:07:33;;;;;;;10.20;4.95;;;2.70;85.60;;;;;;5010844;28;20034;-63
2021/01/13 09:10:11;;;;;;;7.85;3.38;;;2.70;85.80;;;;;;5013278;28;20042;-64
2021/01/13 09:12:41;;;;;;;9.75;3.55;;;2.60;85.80;;;;;;5003034;28;20144;-66
2021/01/13 09:15:09;;;;;;;11.35;3.70;;;2.50;86.60;;;;;;5012785;28;20108;-65
2021/01/13 09:17:59;;;;;;;16.05;3.60;;;2.40;87.00;;;;;;4997465;28;20130;-65
2021/01/13 09:20:26;;;;;;;9.18;3.53;;;2.40;87.30;;;;;;5013851;28;20048;-64
2021/01/13 09:22:54;;;;;;;13.68;4.38;;;2.30;88.00;;;;;;5002031;28;20121;-64
2021/01/13 09:25:43;;;;;;;10.63;4.30;;;2.30;88.10;;;;;;5008620;28;20038;-65
2021/01/13 09:28:16;;;;;;;11.57;4.13;;;2.30;88.60;;;;;;4983510;28;20034;-65
2021/01/13 09:30:42;;;;;;;15.93;4.13;;;2.20;89.30;;;;;;5012919;28;20076;-65
2021/01/13 09:33:16;;;;;;;8.73;4.35;;;2.30;89.20;;;;;;4995592;28;20058;-65
2021/01/13 09:35:44;;;;;;;10.48;4.63;;;2.20;89.80;;;;;;5010252;28;20037;-65
2021/01/13 09:38:26;;;;;;;13.95;4.90;;;2.20;89.70;;;;;;4999286;28;20075;-65
2021/01/13 09:40:56;;;;;;;9.85;4.65;;;2.30;89.70;;;;;;5012387;28;20034;-65
2021/01/13 09:43:37;;;;;;;12.82;5.10;;;2.40;89.40;;;;;;4999738;28;20054;-66
2021/01/13 09:46:30;;;;;;;11.10;5.05;;;2.50;89.00;;;;;;4998054;28;20425;-65
2021/01/13 09:49:01;;;;;;;8.68;4.40;;;2.50;89.00;;;;;;4997838;28;20042;-65
2021/01/13 09:51:27;;;;;;;9.65;4.68;;;2.50;89.60;;;;;;5015347;28;20125;-65
2021/01/13 09:53:55;;;;;;;10.70;4.88;;;2.50;89.00;;;;;;5009097;28;20100;-65
2021/01/13 09:56:23;;;;;;;10.65;5.55;;;2.70;88.40;;;;;;5004467;28;20034;-65
2021/01/13 09:58:51;;;;;;;11.85;5.35;;;2.60;88.80;;;;;;4998089;28;20034;-65
2021/01/13 10:01:18;;;;;;;8.80;5.50;;;2.70;88.70;;;;;;5007949;28;20493;-65
2021/01/13 10:03:45;;;;;;;13.45;4.95;;;2.70;88.60;;;;;;5012157;28;20042;-65
2021/01/13 10:06:13;;;;;;;10.38;4.60;;;2.70;88.70;;;;;;4987666;28;20394;-64
2021/01/13 10:08:39;;;;;;;10.32;5.38;;;2.70;88.20;;;;;;5002810;28;20029;-64
2021/01/13 10:11:05;;;;;;;10.10;4.95;;;2.60;88.10;;;;;;5012187;28;20096;-65
2021/01/13 10:13:31;;;;;;;8.80;4.63;;;2.70;87.90;;;;;;4994393;28;20038;-63
2021/01/13 10:16:01;;;;;;;10.35;4.80;;;2.60;87.90;;;;;;5007344;28;20076;-65
2021/01/13 10:18:27;;;;;;;11.63;5.53;;;2.60;88.40;;;;;;5009950;28;20049;-64
2021/01/13 10:20:57;;;;;;;14.07;5.47;;;2.40;89.10;;;;;;5011999;28;20040;-65
2021/01/13 10:23:28;;;;;;;10.65;4.90;;;2.50;89.10;;;;;;4993845;28;20496;-65
2021/01/13 10:26:07;;;;;;;15.57;4.85;;;2.70;89.30;;;;;;4999524;28;20038;-64
2021/01/13 10:28:34;;;;;;;10.93;5.22;;;2.60;88.60;;;;;;5009738;28;20034;-65
2021/01/13 10:31:01;;;;;;;12.00;5.10;;;2.60;88.80;;;;;;4998900;28;20038;-62
2021/01/13 10:34:03;;;;;;;14.43;5.38;;;2.50;89.50;;;;;;5008189;28;20050;-65
2021/01/13 10:36:40;;;;;;;12.93;5.65;;;2.60;89.40;;;;;;4927042;29;20394;-62
2021/01/13 10:39:11;;;;;;;9.10;5.60;;;2.60;89.20;;;;;;4998507;28;20038;-63
2021/01/13 10:41:42;;;;;;;11.55;4.88;;;2.70;89.20;;;;;;5011851;28;20109;-62
2021/01/13 10:44:12;;;;;;;8.07;5.22;;;2.80;88.80;;;;;;5008288;28;20557;-66
2021/01/13 10:46:46;;;;;;;10.38;5.40;;;2.70;88.60;;;;;;5001574;28;20065;-64
2021/01/13 10:49:26;;;;;;;15.77;5.90;;;2.70;89.00;;;;;;5009113;28;20034;-64
2021/01/13 10:52:18;;;;;;;9.43;5.35;;;2.70;89.30;;;;;;5001244;28;20624;-63
2021/01/13 10:54:54;;;;;;;10.32;6.57;;;2.70;89.10;;;;;;5002689;28;20489;-63
2021/01/13 10:57:29;;;;;;;13.02;5.18;;;2.80;88.70;;;;;;5011644;28;20038;-65
2021/01/13 11:00:11;;;;;;;13.23;5.80;;;3.00;88.10;;;;;;5005632;28;20069;-62
2021/01/13 11:02:38;;;;;;;12.88;5.53;;;3.10;87.70;;;;;;5000666;28;20125;-66
2021/01/13 11:05:05;;;;;;;12.30;5.50;;;3.00;87.60;;;;;;5011642;28;20049;-62
2021/01/13 11:07:42;;;;;;;11.13;5.97;;;3.10;87.10;;;;;;5011295;28;20064;-64
2021/01/13 11:10:10;;;;;;;12.07;6.80;;;3.20;87.10;;;;;;5009074;28;20103;-62
2021/01/13 11:12:36;;;;;;;13.18;5.65;;;3.10;87.50;;;;;;5012569;28;20117;-63
2021/01/13 11:15:07;;;;;;;11.48;6.05;;;3.00;87.90;;;;;;5012495;28;20114;-61
2021/01/13 11:17:34;;;;;;;16.98;6.22;;;2.80;88.40;;;;;;5011011;28;20041;-64
2021/01/13 11:20:01;;;;;;;16.52;6.50;;;2.90;88.40;;;;;;4971828;28;20083;-64
2021/01/13 11:22:44;;;;;;;14.90;6.60;;;3.00;88.00;;;;;;5000883;28;20045;-65
2021/01/13 11:25:22;;;;;;;14.48;6.63;;;2.90;87.80;;;;;;5002081;28;20034;-64
2021/01/13 11:27:55;;;;;;;10.13;6.53;;;2.70;88.60;;;;;;5013760;28;20033;-63
2021/01/13 11:30:21;;;;;;;15.82;7.10;;;2.60;89.80;;;;;;5005489;28;20383;-63
2021/01/13 11:32:52;;;;;;;11.82;6.30;;;2.60;89.80;;;;;;5000430;28;20505;-63
2021/01/13 11:35:32;;;;;;;10.85;6.65;;;2.70;90.00;;;;;;5007720;28;20037;-61
2021/01/13 11:38:41;;;;;;;8.27;5.45;;;2.70;89.90;;;;;;5014538;28;20037;-62
2021/01/13 11:41:18;;;;;;;8.57;5.97;;;2.60;90.20;;;;;;5002197;28;20043;-63
2021/01/13 11:44:05;;;;;;;12.93;6.28;;;2.80;89.80;;;;;;5009659;28;20041;-63
2021/01/13 11:46:42;;;;;;;11.00;5.90;;;2.90;89.30;;;;;;5005085;28;20095;-63
2021/01/13 11:49:26;;;;;;;12.60;6.80;;;3.10;88.20;;;;;;5016382;28;20037;-64
2021/01/13 11:51:55;;;;;;;12.98;6.40;;;3.10;88.20;;;;;;4999827;28;20079;-63
2021/01/13 11:54:28;;;;;;;13.13;6.53;;;3.20;87.90;;;;;;5003115;28;20122;-64
2021/01/13 11:57:14;;;;;;;10.02;5.70;;;3.30;87.40;;;;;;5017815;28;20055;-65
2021/01/13 11:59:40;;;;;;;9.38;5.88;;;3.30;87.60;;;;;;5013027;28;20038;-65
2021/01/13 12:02:13;;;;;;;12.60;6.60;;;3.30;87.80;;;;;;5000856;28;20033;-65
2021/01/13 12:04:43;;;;;;;10.80;6.70;;;3.40;87.60;;;;;;5014070;28;20052;-64
2021/01/13 12:07:09;;;;;;;9.20;5.80;;;3.40;87.40;;;;;;5008260;28;20109;-64
2021/01/13 12:09:36;;;;;;;11.40;6.20;;;3.40;86.80;;;;;;5014547;28;20143;-65
2021/01/13 12:12:03;;;;;;;11.43;6.15;;;3.30;86.90;;;;;;5014918;28;20057;-64
2021/01/13 12:14:41;;;;;;;10.65;5.78;;;3.20;87.60;;;;;;5014007;28;20038;-64
2021/01/13 12:17:06;;;;;;;8.82;6.05;;;3.30;87.10;;;;;;5014408;28;20080;-64
2021/01/13 12:19:39;;;;;;;10.00;6.30;;;3.30;87.00;;;;;;5014500;28;20116;-65
2021/01/13 12:22:05;;;;;;;9.07;6.07;;;3.30;86.90;;;;;;5014364;28;20033;-63
2021/01/13 12:24:42;;;;;;;7.63;5.72;;;3.30;87.00;;;;;;5014204;28;20042;-65
2021/01/13 12:27:27;;;;;;;10.32;6.15;;;3.40;86.30;;;;;;5014203;28;20698;-63
2021/01/13 12:30:09;;;;;;;;;;;3.40;87.00;;;;;;4999277;28;20022;-63
2021/01/13 12:32:35;;;;;;;9.77;5.63;;;3.50;86.40;;;;;;5019365;28;19917;-65
2021/01/13 12:35:02;;;;;;;10.85;6.35;;;3.50;85.90;;;;;;5007577;28;20064;-63
2021/01/13 12:37:27;;;;;;;8.38;5.78;;;3.40;86.30;;;;;;5013890;28;20101;-63
2021/01/13 12:39:57;;;;;;;8.07;5.03;;;3.60;85.90;;;;;;5014091;28;20501;-63
2021/01/13 12:42:30;;;;;;;11.30;6.13;;;3.60;85.80;;;;;;4996694;28;20038;-63
2021/01/13 12:45:00;;;;;;;9.65;5.70;;;3.70;85.60;;;;;;5013767;28;20037;-64
2021/01/13 12:47:27;;;;;;;11.00;6.18;;;3.80;84.80;;;;;;4995552;28;20053;-63
2021/01/13 12:49:53;;;;;;;11.30;6.70;;;3.50;85.60;;;;;;5027837;28;20045;-65
2021/01/13 12:52:19;;;;;;;10.50;6.28;;;3.60;85.50;;;;;;5012486;28;20033;-62
2021/01/13 12:54:45;;;;;;;13.82;6.97;;;3.40;86.50;;;;;;5013864;28;20041;-63
2021/01/13 12:57:11;;;;;;;14.23;6.60;;;3.40;86.40;;;;;;5013863;28;20042;-64
2021/01/13 12:59:36;;;;;;;15.02;6.35;;;3.30;86.90;;;;;;5013888;28;20034;-64
2021/01/13 13:02:02;;;;;;;11.35;6.18;;;3.20;86.70;;;;;;5013785;28;20092;-64
2021/01/13 13:04:28;;;;;;;12.00;7.55;;;3.30;86.80;;;;;;5013191;28;20390;-62
2021/01/13 13:06:54;;;;;;;13.00;6.90;;;3.40;86.60;;;;;;5013098;28;20085;-63
2021/01/13 13:09:20;;;;;;;12.20;6.88;;;3.50;86.20;;;;;;5013012;28;20405;-64
2021/01/13 13:11:45;;;;;;;10.00;5.30;;;3.50;86.30;;;;;;5013329;28;20044;-63
2021/01/13 13:14:12;;;;;;;12.52;6.45;;;3.40;86.50;;;;;;4995942;28;20096;-64
2021/01/13 13:16:38;;;;;;;14.95;6.50;;;3.50;86.20;;;;;;5012226;28;20113;-64